Observation data for Clarendon on 12/10/2018      Previous  Date       Current Mesonet Observations  Soil Data  Daily Summary Page  Observations in Plain Language
KCES 100600Z 29004KT M02/M07 A3035 RMK A01 T10221068  RH  070%=      5-min Rain = 0
KCES 100605Z 28004KT M02/M07 A3035 RMK A01 T10171069  RH  068%=      5-min Rain = 0
KCES 100610Z 29004KT M02/M07 A3035 RMK A01 T10161070  RH  066%=      5-min Rain = 0
KCES 100615Z 29004KT M02/M07 A3034 RMK A01 T10151069  RH  066%=      5-min Rain = 0
KCES 100620Z 29002KT M02/M07 A3034 RMK A01 T10151069  RH  067%=      5-min Rain = 0
KCES 100625Z 28003KT M02/M07 A3034 RMK A01 T10151069  RH  067%=      5-min Rain = 0
KCES 100630Z 28004KT M01/M07 A3033 RMK A01 T10101069  RH  064%=      5-min Rain = 0
KCES 100635Z 26002KT M01/M07 A3033 RMK A01 T10061071  RH  062%=      5-min Rain = 0
KCES 100640Z 25002KT M00/M07 A3033 RMK A01 T10031071  RH  060%=      5-min Rain = 0
KCES 100645Z 26002KT 00/M07 A3033 RMK A01 T00011072  RH  058%=      5-min Rain = 0
KCES 100650Z 25002KT 01/M07 A3033 RMK A01 T00051072  RH  056%=      5-min Rain = 0
KCES 100655Z 27003KT 01/M07 A3033 RMK A01 T00051073  RH  056%=      5-min Rain = 0
KCES 100700Z 27005KT 00/07 A3032 RMK A01 T00000-73  RH  058%=      5-min Rain = 0
KCES 100705Z 26004KT M01/M07 A3032 RMK A01 T10061072  RH  061%=      5-min Rain = 0
KCES 100710Z 26004KT M00/M07 A3032 RMK A01 T10011071  RH  059%=      5-min Rain = 0
KCES 100715Z 26005KT 00/M07 A3032 RMK A01 T00011072  RH  058%=      5-min Rain = 0
KCES 100720Z 27006KT 00/M07 A3032 RMK A01 T00011072  RH  058%=      5-min Rain = 0
KCES 100725Z 27006KT M01/M07 A3031 RMK A01 T10071072  RH  062%=      5-min Rain = 0
KCES 100730Z 28007KT M01/M07 A3031 RMK A01 T10111070  RH  065%=      5-min Rain = 0
KCES 100735Z 27006KT M01/M07 A3031 RMK A01 T10121069  RH  065%=      5-min Rain = 0
KCES 100740Z 28008KT M01/M07 A3031 RMK A01 T10121070  RH  065%=      5-min Rain = 0
KCES 100745Z 28008KT M02/M07 A3031 RMK A01 T10151071  RH  066%=      5-min Rain = 0
KCES 100750Z 29008KT M01/M07 A3031 RMK A01 T10141069  RH  066%=      5-min Rain = 0
KCES 100755Z 27008KT M01/M07 A3031 RMK A01 T10111069  RH  065%=      5-min Rain = 0
KCES 100800Z 29006KT M01/M07 A3031 RMK A01 T10121071  RH  064%=      5-min Rain = 0
KCES 100805Z 28007KT M01/M07 A3031 RMK A01 T10141071  RH  065%=      5-min Rain = 0
KCES 100810Z 28007KT M01/M07 A3031 RMK A01 T10141071  RH  065%=      5-min Rain = 0
KCES 100815Z 28007KT M02/M07 A3031 RMK A01 T10151071  RH  066%=      5-min Rain = 0
KCES 100820Z 28007KT M02/M07 A3031 RMK A01 T10201073  RH  067%=      5-min Rain = 0
KCES 100825Z 28008KT M02/M07 A3031 RMK A01 T10231073  RH  069%=      5-min Rain = 0
KCES 100830Z 27008KT M02/M07 A3031 RMK A01 T10201071  RH  068%=      5-min Rain = 0
KCES 100835Z 27008KT M02/M07 A3031 RMK A01 T10191071  RH  068%=      5-min Rain = 0
KCES 100840Z 26008KT M01/M07 A3031 RMK A01 T10131069  RH  066%=      5-min Rain = 0
KCES 100845Z 27008KT M01/M07 A3031 RMK A01 T10091070  RH  064%=      5-min Rain = 0
KCES 100850Z 27007KT M01/M07 A3031 RMK A01 T10071070  RH  063%=      5-min Rain = 0
KCES 100855Z 27007KT M01/M07 A3031 RMK A01 T10101071  RH  063%=      5-min Rain = 0
KCES 100900Z 27006KT M02/M07 A3031 RMK A01 T10161072  RH  066%=      5-min Rain = 0
KCES 100905Z 28007KT M02/M07 A3031 RMK A01 T10211072  RH  068%=      5-min Rain = 0
KCES 100910Z 28007KT M02/M07 A3031 RMK A01 T10201072  RH  068%=      5-min Rain = 0
KCES 100915Z 28004KT M02/M07 A3031 RMK A01 T10201073  RH  067%=      5-min Rain = 0
KCES 100920Z 28003KT M02/M07 A3031 RMK A01 T10231074  RH  068%=      5-min Rain = 0
KCES 100925Z 29003KT M02/M07 A3031 RMK A01 T10241073  RH  069%=      5-min Rain = 0
KCES 100930Z 30003KT M02/M07 A3031 RMK A01 T10241074  RH  069%=      5-min Rain = 0
KCES 100935Z 28004KT M03/M08 A3031 RMK A01 T10251075  RH  069%=      5-min Rain = 0
KCES 100940Z 28005KT M03/M08 A3031 RMK A01 T10281077  RH  069%=      5-min Rain = 0
KCES 100945Z 29006KT M03/M08 A3031 RMK A01 T10301076  RH  071%=      5-min Rain = 0
KCES 100950Z 30006KT M03/M07 A3031 RMK A01 T10291074  RH  071%=      5-min Rain = 0
KCES 100955Z 30004KT M03/M07 A3031 RMK A01 T10281073  RH  071%=      5-min Rain = 0
KCES 101000Z 30004KT M03/M07 A303 RMK A01 T10291074  RH  071%=      5-min Rain = 0
KCES 101005Z 30005KT M03/M08 A303 RMK A01 T10311075  RH  072%=      5-min Rain = 0
KCES 101010Z 29005KT M03/M07 A303 RMK A01 T10321074  RH  073%=      5-min Rain = 0
KCES 101015Z 30005KT M03/M07 A303 RMK A01 T10331074  RH  073%=      5-min Rain = 0
KCES 101020Z 29006KT M03/M07 A303 RMK A01 T10321073  RH  073%=      5-min Rain = 0
KCES 101025Z 29004KT M03/M07 A303 RMK A01 T10301072  RH  073%=      5-min Rain = 0
KCES 101030Z 30003KT M03/M07 A303 RMK A01 T10301073  RH  072%=      5-min Rain = 0
KCES 101035Z 29001KT M03/M07 A303 RMK A01 T10321074  RH  073%=      5-min Rain = 0
KCES 101040Z 23001KT M03/M07 A303 RMK A01 T10331074  RH  073%=      5-min Rain = 0
KCES 101045Z 25001KT M03/M08 A303 RMK A01 T10341075  RH  074%=      5-min Rain = 0
KCES 101050Z 26001KT M04/M07 A303 RMK A01 T10351074  RH  074%=      5-min Rain = 0
KCES 101055Z 29001KT M03/M07 A3029 RMK A01 T10341074  RH  074%=      5-min Rain = 0
KCES 101100Z 32001KT M03/M07 A303 RMK A01 T10331074  RH  073%=      5-min Rain = 0
KCES 101105Z 33001KT M03/M07 A303 RMK A01 T10331074  RH  073%=      5-min Rain = 0
KCES 101110Z 32002KT M03/M07 A303 RMK A01 T10321074  RH  073%=      5-min Rain = 0
KCES 101115Z 32003KT M03/M07 A303 RMK A01 T10321074  RH  073%=      5-min Rain = 0
KCES 101120Z 29004KT M03/M07 A303 RMK A01 T10321074  RH  072%=      5-min Rain = 0
KCES 101125Z 30006KT M04/M08 A303 RMK A01 T10351075  RH  074%=      5-min Rain = 0
KCES 101130Z 30007KT M04/M07 A303 RMK A01 T10351072  RH  076%=      5-min Rain = 0
KCES 101135Z 30007KT M03/M07 A303 RMK A01 T10331071  RH  075%=      5-min Rain = 0
KCES 101140Z 29008KT M03/M07 A3029 RMK A01 T10331072  RH  075%=      5-min Rain = 0
KCES 101145Z 29007KT M03/M07 A303 RMK A01 T10341072  RH  075%=      5-min Rain = 0
KCES 101150Z 29006KT M04/M07 A303 RMK A01 T10351073  RH  075%=      5-min Rain = 0
KCES 101155Z 29007KT M04/M07 A303 RMK A01 T10381074  RH  076%=      5-min Rain = 0
KCES 101200Z 29006KT M04/M08 A303 RMK A01 T10411076  RH  077%=      5-min Rain = 0
KCES 101205Z 29005KT M04/M08 A303 RMK A01 T10431076  RH  077%=      5-min Rain = 0
KCES 101210Z 29004KT M04/M08 A303 RMK A01 T10431076  RH  078%=      5-min Rain = 0
KCES 101215Z 31003KT M04/M08 A303 RMK A01 T10431076  RH  078%=      5-min Rain = 0
KCES 101220Z 30003KT M04/M07 A303 RMK A01 T10411074  RH  078%=      5-min Rain = 0
KCES 101225Z 30004KT M04/M07 A303 RMK A01 T10391074  RH  077%=      5-min Rain = 0
KCES 101230Z 30005KT M04/M07 A3031 RMK A01 T10391074  RH  077%=      5-min Rain = 0
KCES 101235Z 30007KT M04/M07 A3031 RMK A01 T10361071  RH  077%=      5-min Rain = 0
KCES 101240Z 30008KT M03/M07 A3031 RMK A01 T10301069  RH  074%=      5-min Rain = 0
KCES 101245Z 31007KT M03/M07 A3031 RMK A01 T10291070  RH  074%=      5-min Rain = 0
KCES 101250Z 32008KT M03/M07 A3032 RMK A01 T10291070  RH  073%=      5-min Rain = 0
KCES 101255Z 33006KT M03/M07 A3032 RMK A01 T10321072  RH  074%=      5-min Rain = 0
KCES 101300Z 33006KT M03/M07 A3032 RMK A01 T10341073  RH  074%=      5-min Rain = 0
KCES 101305Z 31007KT M03/M07 A3032 RMK A01 T10321071  RH  075%=      5-min Rain = 0
KCES 101310Z 30008KT M03/M07 A3032 RMK A01 T10271069  RH  073%=      5-min Rain = 0
KCES 101315Z 30007KT M03/M07 A3032 RMK A01 T10281070  RH  073%=      5-min Rain = 0
KCES 101320Z 30008KT M03/M07 A3032 RMK A01 T10311070  RH  074%=      5-min Rain = 0
KCES 101325Z 30008KT M03/M07 A3032 RMK A01 T10311071  RH  074%=      5-min Rain = 0
KCES 101330Z 30007KT M03/M07 A3033 RMK A01 T10331071  RH  075%=      5-min Rain = 0
KCES 101335Z 29008KT M03/M07 A3033 RMK A01 T10341071  RH  075%=      5-min Rain = 0
KCES 101340Z 30008KT M04/M07 A3033 RMK A01 T10351071  RH  076%=      5-min Rain = 0
KCES 101345Z 30009KT M03/M07 A3033 RMK A01 T10341069  RH  076%=      5-min Rain = 0
KCES 101350Z 30009KT M03/M07 A3033 RMK A01 T10301068  RH  075%=      5-min Rain = 0
KCES 101355Z 30009KT M03/M07 A3032 RMK A01 T10281067  RH  074%=      5-min Rain = 0
KCES 101400Z 29008KT M03/M07 A3032 RMK A01 T10271066  RH  075%=      5-min Rain = 0
KCES 101405Z 30008KT M02/M06 A3032 RMK A01 T10241064  RH  074%=      5-min Rain = 0
KCES 101410Z 30009KT M02/M06 A3032 RMK A01 T10221063  RH  073%=      5-min Rain = 0
KCES 101415Z 29009KT M02/M06 A3032 RMK A01 T10201062  RH  073%=      5-min Rain = 0
KCES 101420Z 30009KT M02/M06 A3032 RMK A01 T10171061  RH  072%=      5-min Rain = 0
KCES 101425Z 30008KT M01/M06 A3033 RMK A01 T10141060  RH  071%=      5-min Rain = 0
KCES 101430Z 30008KT M01/M06 A3033 RMK A01 T10141060  RH  071%=      5-min Rain = 0
KCES 101435Z 31008KT M01/M06 A3033 RMK A01 T10131059  RH  071%=      5-min Rain = 0
KCES 101440Z 31008KT M01/M06 A3033 RMK A01 T10101058  RH  070%=      5-min Rain = 0
KCES 101445Z 32007KT M01/M06 A3034 RMK A01 T10071056  RH  070%=      5-min Rain = 0
KCES 101450Z 32007KT M01/M06 A3034 RMK A01 T10051055  RH  069%=      5-min Rain = 0
KCES 101455Z 33007KT M00/M05 A3034 RMK A01 T10011054  RH  068%=      5-min Rain = 0
KCES 101500Z 33007KT 00/M05 A3034 RMK A01 T00021053  RH  067%=      5-min Rain = 0
KCES 101505Z 33008KT 00/M05 A3034 RMK A01 T00041053  RH  066%=      5-min Rain = 0
KCES 101510Z 34007KT 01/M05 A3035 RMK A01 T00081052  RH  065%=      5-min Rain = 0
KCES 101515Z 33007KT 01/M05 A3035 RMK A01 T00121052  RH  063%=      5-min Rain = 0
KCES 101520Z 33006KT 02/M05 A3035 RMK A01 T00151052  RH  061%=      5-min Rain = 0
KCES 101525Z 32006KT 02/M05 A3035 RMK A01 T00201050  RH  060%=      5-min Rain = 0
KCES 101530Z 32007KT 02/M05 A3035 RMK A01 T00241049  RH  059%=      5-min Rain = 0
KCES 101535Z 33007KT 03/M05 A3036 RMK A01 T00271049  RH  057%=      5-min Rain = 0
KCES 101540Z 34008KT 03/M05 A3036 RMK A01 T00291050  RH  056%=      5-min Rain = 0
KCES 101545Z 34007KT 03/M05 A3036 RMK A01 T00331048  RH  056%=      5-min Rain = 0
KCES 101550Z 34008KT 04/M05 A3036 RMK A01 T00371048  RH  054%=      5-min Rain = 0
KCES 101555Z 34007KT 04/M05 A3036 RMK A01 T00411048  RH  052%=      5-min Rain = 0
KCES 101600Z 34007KT 05/M05 A3036 RMK A01 T00451049  RH  051%=      5-min Rain = 0
KCES 101605Z 33008KT 05/M05 A3036 RMK A01 T00481048  RH  050%=      5-min Rain = 0
KCES 101610Z 34008KT 05/M05 A3036 RMK A01 T00521049  RH  048%=      5-min Rain = 0
KCES 101615Z 35008KT 06/M05 A3036 RMK A01 T00561049  RH  047%=      5-min Rain = 0
KCES 101620Z 35007KT 06/M05 A3036 RMK A01 T00591050  RH  046%=      5-min Rain = 0
KCES 101625Z 34007KT 06/M05 A3036 RMK A01 T00621049  RH  045%=      5-min Rain = 0
KCES 101630Z 33007KT 07/M05 A3036 RMK A01 T00651049  RH  044%=      5-min Rain = 0
KCES 101635Z 35006KT 07/M05 A3035 RMK A01 T00681051  RH  042%=      5-min Rain = 0
KCES 101640Z 35005KT 07/M05 A3035 RMK A01 T00721052  RH  041%=      5-min Rain = 0
KCES 101645Z 35005KT 08/M05 A3035 RMK A01 T00771051  RH  040%=      5-min Rain = 0
KCES 101650Z 35004KT 08/M05 A3035 RMK A01 T00801053  RH  039%=      5-min Rain = 0
KCES 101655Z 01006KT 09/M06 A3035 RMK A01 T00851061  RH  035%=      5-min Rain = 0
KCES 101700Z 01006KT 09/M06 A3035 RMK A01 T00871063  RH  034%=      5-min Rain = 0
KCES 101705Z 03004KT 09/M06 A3035 RMK A01 T00871062  RH  034%=      5-min Rain = 0
KCES 101710Z 05005KT 09/M06 A3035 RMK A01 T00911062  RH  033%=      5-min Rain = 0
KCES 101715Z 04004KT 09/M06 A3035 RMK A01 T00911064  RH  033%=      5-min Rain = 0
KCES 101720Z 03006KT 09/M07 A3035 RMK A01 T00941067  RH  032%=      5-min Rain = 0
KCES 101725Z 01005KT 10/M07 A3034 RMK A01 T00971067  RH  031%=      5-min Rain = 0
KCES 101730Z 00004KT 10/M07 A3034 RMK A01 T00981067  RH  031%=      5-min Rain = 0
KCES 101735Z 35005KT 10/M07 A3034 RMK A01 T01011068  RH  030%=      5-min Rain = 0
KCES 101740Z 34005KT 10/M07 A3034 RMK A01 T01021069  RH  029%=      5-min Rain = 0
KCES 101745Z 35005KT 10/M07 A3033 RMK A01 T01031069  RH  029%=      5-min Rain = 0
KCES 101750Z 00004KT 11/M07 A3033 RMK A01 T01061067  RH  029%=      5-min Rain = 0
KCES 101755Z 00003KT 11/M07 A3032 RMK A01 T01071068  RH  029%=      5-min Rain = 0
KCES 101800Z 35004KT 11/M07 A3032 RMK A01 T01081070  RH  028%=      5-min Rain = 0
KCES 101805Z 34002KT 11/M07 A3032 RMK A01 T01061071  RH  028%=      5-min Rain = 0
KCES 101810Z 24002KT 11/M07 A3032 RMK A01 T01081070  RH  028%=      5-min Rain = 0
KCES 101815Z 29003KT 11/M07 A3031 RMK A01 T01131069  RH  027%=      5-min Rain = 0
KCES 101820Z 29002G7KT 11/M07 A3031 RMK A01 T01121069  RH  027%=      5-min Rain = 0
KCES 101825Z 21002KT 11/M07 A3031 RMK A01 T01141068  RH  027%=      5-min Rain = 0
KCES 101830Z 25004KT 12/M07 A303 RMK A01 T01181065  RH  027%=      5-min Rain = 0
KCES 101835Z 34004KT 12/M07 A303 RMK A01 T01201065  RH  027%=      5-min Rain = 0
KCES 101840Z 33004KT 12/M07 A303 RMK A01 T01181066  RH  027%=      5-min Rain = 0
KCES 101845Z 23003KT 12/M07 A303 RMK A01 T01171067  RH  027%=      5-min Rain = 0
KCES 101850Z 27004KT 12/M06 A3029 RMK A01 T01191064  RH  027%=      5-min Rain = 0
KCES 101855Z 28004KT 12/M06 A3029 RMK A01 T01211064  RH  027%=      5-min Rain = 0
KCES 101900Z 32003KT 12/M07 A3029 RMK A01 T01201066  RH  027%=      5-min Rain = 0
KCES 101905Z 04001KT 12/M07 A3029 RMK A01 T01221066  RH  026%=      5-min Rain = 0
KCES 101910Z 04002KT 12/M07 A3028 RMK A01 T01231065  RH  026%=      5-min Rain = 0
KCES 101915Z 30006KT 13/M07 A3028 RMK A01 T01251066  RH  026%=      5-min Rain = 0
KCES 101920Z 33003KT 13/M07 A3028 RMK A01 T01261066  RH  026%=      5-min Rain = 0
KCES 101925Z 33005KT 13/M07 A3028 RMK A01 T01251065  RH  026%=      5-min Rain = 0
KCES 101930Z 29006KT 13/M06 A3027 RMK A01 T01251064  RH  026%=      5-min Rain = 0
KCES 101935Z 31004KT 12/M07 A3027 RMK A01 T01241066  RH  026%=      5-min Rain = 0
KCES 101940Z 35004KT 13/M07 A3027 RMK A01 T01251065  RH  026%=      5-min Rain = 0
KCES 101945Z 01005KT 13/M07 A3027 RMK A01 T01261066  RH  026%=      5-min Rain = 0
KCES 101950Z 02004KT 13/M06 A3027 RMK A01 T01281064  RH  026%=      5-min Rain = 0
KCES 101955Z 35003KT 13/M06 A3026 RMK A01 T01321063  RH  025%=      5-min Rain = 0
KCES 102000Z 01003KT 13/M06 A3026 RMK A01 T01331063  RH  025%=      5-min Rain = 0
KCES 102005Z 08002KT 13/M06 A3026 RMK A01 T01301064  RH  025%=      5-min Rain = 0
KCES 102010Z 24006KT 13/M06 A3026 RMK A01 T01331062  RH  025%=      5-min Rain = 0
KCES 102015Z 23005KT 13/M06 A3026 RMK A01 T01321062  RH  025%=      5-min Rain = 0
KCES 102020Z 25005KT 13/M06 A3026 RMK A01 T01331062  RH  025%=      5-min Rain = 0
KCES 102025Z 20001KT 14/M06 A3026 RMK A01 T01351063  RH  025%=      5-min Rain = 0
KCES 102030Z 25003KT 14/M06 A3025 RMK A01 T01391061  RH  024%=      5-min Rain = 0
KCES 102035Z 26005KT 14/M06 A3025 RMK A01 T01361059  RH  025%=      5-min Rain = 0
KCES 102040Z 23008KT 13/M06 A3025 RMK A01 T01331059  RH  026%=      5-min Rain = 0
KCES 102045Z 21006KT 13/M06 A3025 RMK A01 T01331059  RH  026%=      5-min Rain = 0
KCES 102050Z 20003KT 13/M06 A3025 RMK A01 T01341060  RH  026%=      5-min Rain = 0
KCES 102055Z 24003KT 14/M06 A3025 RMK A01 T01351059  RH  026%=      5-min Rain = 0
KCES 102100Z 26005KT 13/M06 A3025 RMK A01 T01341060  RH  025%=      5-min Rain = 0
KCES 102105Z 25003G8KT 13/M06 A3025 RMK A01 T01331061  RH  025%=      5-min Rain = 0
KCES 102110Z 21003KT 13/M06 A3025 RMK A01 T01341060  RH  025%=      5-min Rain = 0
KCES 102115Z 22005KT 14/M06 A3025 RMK A01 T01361059  RH  025%=      5-min Rain = 0
KCES 102120Z 22007KT 14/M06 A3025 RMK A01 T01351059  RH  026%=      5-min Rain = 0
KCES 102125Z 23005G10KT 14/M06 A3025 RMK A01 T01351061  RH  025%=      5-min Rain = 0
KCES 102130Z 28003KT 14/M06 A3025 RMK A01 T01361061  RH  025%=      5-min Rain = 0
KCES 102135Z 26003KT 14/M06 A3025 RMK A01 T01351059  RH  025%=      5-min Rain = 0
KCES 102140Z 25002KT 14/M06 A3025 RMK A01 T01381058  RH  025%=      5-min Rain = 0
KCES 102145Z 25005KT 14/M06 A3025 RMK A01 T01391058  RH  025%=      5-min Rain = 0
KCES 102150Z 26004KT 14/M06 A3025 RMK A01 T01351059  RH  025%=      5-min Rain = 0
KCES 102155Z 20005KT 14/M06 A3025 RMK A01 T01361056  RH  026%=      5-min Rain = 0
KCES 102200Z 20005KT 14/M05 A3025 RMK A01 T01361054  RH  026%=      5-min Rain = 0
KCES 102205Z 19004KT 14/M06 A3025 RMK A01 T01351056  RH  026%=      5-min Rain = 0
KCES 102210Z 18002KT 14/M06 A3025 RMK A01 T01351056  RH  026%=      5-min Rain = 0
KCES 102215Z 18005KT 14/M06 A3025 RMK A01 T01361055  RH  026%=      5-min Rain = 0
KCES 102220Z 19006KT 13/M05 A3025 RMK A01 T01341053  RH  027%=      5-min Rain = 0
KCES 102225Z 20005KT 13/M05 A3025 RMK A01 T01331053  RH  027%=      5-min Rain = 0
KCES 102230Z 16006KT 13/M05 A3025 RMK A01 T01321049  RH  028%=      5-min Rain = 0
KCES 102235Z 16007KT 12/M04 A3025 RMK A01 T01241042  RH  031%=      5-min Rain = 0
KCES 102240Z 16009KT 12/M04 A3025 RMK A01 T01191042  RH  032%=      5-min Rain = 0
KCES 102245Z 16009KT 12/M04 A3025 RMK A01 T01151043  RH  033%=      5-min Rain = 0
KCES 102250Z 15007KT 11/M04 A3025 RMK A01 T01121042  RH  034%=      5-min Rain = 0
KCES 102255Z 15007KT 11/M04 A3025 RMK A01 T01081041  RH  035%=      5-min Rain = 0
KCES 102300Z 15006KT 11/M04 A3025 RMK A01 T01051041  RH  036%=      5-min Rain = 0
KCES 102305Z 14006KT 10/M04 A3025 RMK A01 T01001041  RH  037%=      5-min Rain = 0
KCES 102310Z 14008KT 09/M04 A3025 RMK A01 T00931041  RH  039%=      5-min Rain = 0
KCES 102315Z 14009KT 09/M04 A3025 RMK A01 T00891042  RH  040%=      5-min Rain = 0
KCES 102320Z 15008KT 09/M04 A3025 RMK A01 T00851042  RH  041%=      5-min Rain = 0
KCES 102325Z 15008KT 08/M04 A3025 RMK A01 T00801042  RH  042%=      5-min Rain = 0
KCES 102330Z 15009KT 08/M04 A3025 RMK A01 T00751042  RH  043%=      5-min Rain = 0
KCES 102335Z 15008KT 07/M04 A3025 RMK A01 T00711042  RH  045%=      5-min Rain = 0
KCES 102340Z 16008KT 07/M04 A3025 RMK A01 T00661042  RH  046%=      5-min Rain = 0
KCES 102345Z 16009KT 06/M04 A3025 RMK A01 T00601042  RH  048%=      5-min Rain = 0
KCES 102350Z 16009KT 06/M04 A3025 RMK A01 T00601041  RH  048%=      5-min Rain = 0
KCES 102355Z 16009KT 06/M04 A3025 RMK A01 T00581041  RH  049%=      5-min Rain = 0
KCES 110000Z 15008KT 06/M04 A3025 RMK A01 T00571042  RH  049%=      5-min Rain = 0
KCES 110005Z 16009KT 05/M04 A3025 RMK A01 T00541042  RH  050%=      5-min Rain = 0
KCES 110010Z 15010KT 05/M04 A3025 RMK A01 T00531042  RH  051%=      5-min Rain = 0
KCES 110015Z 15010KT 05/M04 A3025 RMK A01 T00541042  RH  050%=      5-min Rain = 0
KCES 110020Z 15011KT 06/M04 A3026 RMK A01 T00551042  RH  050%=      5-min Rain = 0
KCES 110025Z 16011KT 06/M04 A3026 RMK A01 T00561043  RH  049%=      5-min Rain = 0
KCES 110030Z 15010KT 06/M04 A3026 RMK A01 T00551043  RH  049%=      5-min Rain = 0
KCES 110035Z 16010KT 06/M04 A3026 RMK A01 T00551043  RH  049%=      5-min Rain = 0
KCES 110040Z 16010KT 06/M04 A3026 RMK A01 T00551043  RH  049%=      5-min Rain = 0
KCES 110045Z 15011KT 06/M04 A3026 RMK A01 T00571043  RH  049%=      5-min Rain = 0
KCES 110050Z 15011KT 06/M04 A3026 RMK A01 T00581042  RH  049%=      5-min Rain = 0
KCES 110055Z 15011KT 06/M04 A3026 RMK A01 T00581040  RH  050%=      5-min Rain = 0
KCES 110100Z 15011KT 06/M04 A3025 RMK A01 T00591038  RH  050%=      5-min Rain = 0
KCES 110105Z 15010KT 06/M04 A3025 RMK A01 T00571037  RH  051%=      5-min Rain = 0
KCES 110110Z 16010KT 05/M04 A3025 RMK A01 T00541035  RH  053%=      5-min Rain = 0
KCES 110115Z 16010KT 05/M03 A3025 RMK A01 T00531032  RH  054%=      5-min Rain = 0
KCES 110120Z 16011KT 06/M03 A3025 RMK A01 T00551030  RH  054%=      5-min Rain = 0
KCES 110125Z 16010KT 06/M03 A3025 RMK A01 T00561030  RH  054%=      5-min Rain = 0
KCES 110130Z 16010KT 06/M03 A3025 RMK A01 T00571028  RH  055%=      5-min Rain = 0
KCES 110135Z 16010KT 06/M03 A3025 RMK A01 T00571026  RH  055%=      5-min Rain = 0
KCES 110140Z 16010KT 06/M03 A3025 RMK A01 T00551025  RH  057%=      5-min Rain = 0
KCES 110145Z 16010KT 05/M02 A3025 RMK A01 T00521024  RH  058%=      5-min Rain = 0
KCES 110150Z 16009KT 05/M02 A3025 RMK A01 T00501021  RH  060%=      5-min Rain = 0
KCES 110155Z 16010KT 05/M02 A3025 RMK A01 T00501017  RH  063%=      5-min Rain = 0
KCES 110200Z 16010KT 05/M01 A3025 RMK A01 T00511013  RH  064%=      5-min Rain = 0
KCES 110205Z 16010KT 05/M01 A3025 RMK A01 T00501012  RH  065%=      5-min Rain = 0
KCES 110210Z 16010KT 05/M01 A3025 RMK A01 T00491010  RH  066%=      5-min Rain = 0
KCES 110215Z 16010KT 05/M01 A3025 RMK A01 T00491008  RH  067%=      5-min Rain = 0
KCES 110220Z 16010KT 05/M01 A3025 RMK A01 T00491006  RH  068%=      5-min Rain = 0
KCES 110225Z 16010KT 05/M01 A3025 RMK A01 T00471006  RH  069%=      5-min Rain = 0
KCES 110230Z 16010KT 05/M01 A3025 RMK A01 T00461006  RH  070%=      5-min Rain = 0
KCES 110235Z 16011KT 05/M01 A3025 RMK A01 T00461006  RH  070%=      5-min Rain = 0
KCES 110240Z 16010KT 05/M01 A3025 RMK A01 T00451007  RH  070%=      5-min Rain = 0
KCES 110245Z 16011KT 04/M01 A3025 RMK A01 T00441008  RH  070%=      5-min Rain = 0
KCES 110250Z 15011KT 04/M01 A3025 RMK A01 T00431008  RH  070%=      5-min Rain = 0
KCES 110255Z 16010KT 04/M01 A3025 RMK A01 T00431008  RH  070%=      5-min Rain = 0
KCES 110300Z 17009KT 04/M01 A3025 RMK A01 T00411009  RH  070%=      5-min Rain = 0
KCES 110305Z 16009KT 04/M01 A3025 RMK A01 T00391010  RH  071%=      5-min Rain = 0
KCES 110310Z 17007KT 04/M01 A3025 RMK A01 T00371012  RH  071%=      5-min Rain = 0
KCES 110315Z 17006KT 03/M01 A3025 RMK A01 T00311014  RH  073%=      5-min Rain = 0
KCES 110320Z 17006KT 03/M01 A3025 RMK A01 T00281014  RH  074%=      5-min Rain = 0
KCES 110325Z 18006KT 03/M02 A3025 RMK A01 T00251016  RH  075%=      5-min Rain = 0
KCES 110330Z 19007KT 02/M02 A3025 RMK A01 T00201018  RH  076%=      5-min Rain = 0
KCES 110335Z 19008KT 02/M02 A3025 RMK A01 T00181015  RH  079%=      5-min Rain = 0
KCES 110340Z 20007KT 02/M02 A3026 RMK A01 T00201015  RH  079%=      5-min Rain = 0
KCES 110345Z 19007KT 01/M02 A3026 RMK A01 T00141019  RH  079%=      5-min Rain = 0
KCES 110350Z 19006KT 01/M02 A3025 RMK A01 T00111020  RH  081%=      5-min Rain = 0
KCES 110355Z 20007KT 01/M02 A3026 RMK A01 T00071023  RH  081%=      5-min Rain = 0
KCES 110400Z 19008KT 01/M02 A3026 RMK A01 T00051021  RH  084%=      5-min Rain = 0
KCES 110405Z 19008KT 00/M02 A3026 RMK A01 T00041022  RH  084%=      5-min Rain = 0
KCES 110410Z 18008KT 00/M02 A3026 RMK A01 T00041019  RH  085%=      5-min Rain = 0
KCES 110415Z 18006KT 01/M02 A3025 RMK A01 T00071017  RH  085%=      5-min Rain = 0
KCES 110420Z 19005KT 01/M02 A3025 RMK A01 T00061018  RH  084%=      5-min Rain = 0
KCES 110425Z 19004KT 01/M02 A3025 RMK A01 T00051019  RH  084%=      5-min Rain = 0
KCES 110430Z 19004KT 00/M02 A3025 RMK A01 T00011024  RH  084%=      5-min Rain = 0
KCES 110435Z 20005KT M00/M03 A3025 RMK A01 T10041027  RH  085%=      5-min Rain = 0
KCES 110440Z 19006KT M01/M03 A3025 RMK A01 T10081029  RH  086%=      5-min Rain = 0
KCES 110445Z 19007KT M01/M03 A3025 RMK A01 T10121031  RH  087%=      5-min Rain = 0
KCES 110450Z 20008KT M01/M03 A3025 RMK A01 T10111027  RH  089%=      5-min Rain = 0
KCES 110455Z 19007KT M01/M02 A3025 RMK A01 T10061021  RH  090%=      5-min Rain = 0
KCES 110500Z 19007KT M01/M02 A3025 RMK A01 T10061023  RH  089%=      5-min Rain = 0
KCES 110505Z 19007KT M01/M03 A3026 RMK A01 T10091027  RH  088%=      5-min Rain = 0
KCES 110510Z 19006KT M01/M03 A3025 RMK A01 T10121028  RH  089%=      5-min Rain = 0
KCES 110515Z 18006KT M01/M03 A3025 RMK A01 T10121028  RH  090%=      5-min Rain = 0
KCES 110520Z 18006KT M01/M03 A3025 RMK A01 T10141029  RH  090%=      5-min Rain = 0
KCES 110525Z 19006KT M02/M03 A3025 RMK A01 T10161031  RH  090%=      5-min Rain = 0
KCES 110530Z 19007KT M02/M03 A3025 RMK A01 T10181032  RH  090%=      5-min Rain = 0
KCES 110535Z 19007KT M02/M03 A3025 RMK A01 T10181032  RH  091%=      5-min Rain = 0
KCES 110540Z 19007KT M02/M03 A3025 RMK A01 T10191033  RH  091%=      5-min Rain = 0
KCES 110545Z 19007KT M02/M03 A3025 RMK A01 T10201033  RH  091%=      5-min Rain = 0
KCES 110550Z 19007KT M02/M03 A3025 RMK A01 T10191032  RH  092%=      5-min Rain = 0
KCES 110555Z 19006KT M02/M03 A3024 RMK A01 T10191032  RH  091%=      5-min Rain = 0

Page generated in 0.0183 seconds.